Terminal Aerodrome Forecast
Issued by NWS Bismarck, ND

Home | Current Version | Previous Version | Graphics & Text | Print | Product List | Glossary On
Versions: 1 2 3 4 5 6 7 8 9 10 11 12 13 14 15 16 17 18 19 20
527
FTUS43 KBIS 201532 AAA
TAFISN
TAF AMD
KISN 201532Z 2016/2112 25012KT 5SM HZ BKN035 OVC050
     FM201700 25012KT P6SM SCT050 BKN100
     FM202000 25011KT P6SM SCT080
     FM210000 24007KT P6SM SCT150
     FM210400 25006KT P6SM BKN090=

USA.gov is the U.S. government's official web portal to all federal, state and local government web resources and services.